Atlantic - Newfoundland: Past 24 Hour Conditions

 

Port aux Basques

07:30 AM NDT 25 July 2014
This table is a summary of hourly weather conditions for the past 24 hours.
Date / Time
(NDT)
Wind(knots) Conditions Visibility(km) Pressure(kPa) Air tempC) Relative humidity(%) Dew pointC)
25 July 2014
7:30 calm Cloudy 0.8 100.8 17 100 17
6:30 calm Cloudy 0.5 100.8 16 100 16
5:30 calm Cloudy 0.6 100.8 16 99 16
4:30 calm Light Rain 2 100.7 17 100 17
3:30 ESE 4 Rain 0.5 100.7 17 100 17
2:30 ENE 6 Light Rain 0.2 100.7 17 99 17
1:30 ENE 6 Light Rain 0.2 100.8 17 100 17
0:30 ENE 9 Light Rain 3 100.8 17 99 17
24 July 2014
23:30 E 12 Cloudy 6 100.9 16 99 16
22:30 E 11 Mostly Cloudy 4 100.9 17 99 17
21:30 E 10 Heavy Rain 1 100.9 17 99 17
20:30 ENE 8 Rain 0.3 100.9 17 99 17
19:30 E 6 Cloudy 0.3 100.9 16 99 16
18:30 E 5 Cloudy 0.3 100.9 17 99 17
17:30 calm Cloudy 0.5 100.9 17 100 17
16:30 calm Drizzle 0.6 100.9 17 99 17
15:30 calm Light Drizzle 0.3 100.9 17 100 17
14:30 calm Cloudy 0.3 100.9 17 100 17
13:30 ESE 5 Cloudy 0.3 100.9 17 99 17
12:30 E 5 Cloudy 0.6 100.9 17 99 17
11:30 E 4 Cloudy 1 100.9 17 99 17
10:30 E 5 Light Drizzle 0.5 100.9 17 99 17
9:30 E 7 Cloudy 1 100.8 17 98 16
8:30 E 7 Cloudy 5 100.8 17 96 16
7:30 E 9 Cloudy 6 100.8 16 95 16
 
Map of Atlantic - Newfoundland marine weather areas Southwestern Grand Banks - 44138 Banquereau - 44139 Tail of the Bank - 44140 Nickerson Bank - 44251 Northeast Burgeo Bank - 44255 Blanc-Sablon Airport Cap Whittle Chevery Natashquan Airport Heath Point Miscou Island Grand Étang Ingonish Beach North Mountain St.Paul Island J.A. Douglas McCurdy Sydney Airport Charlottetown Airport East Point North Cape Argentia Bonavista Burgeo Cape Race Corner Brook Daniel's Harbour Englee Ferolle Point La Scie Port aux Basques Rocky Harbour Sagona Island St. Anthony Airport St. John's Int'l Airport St. Lawrence Stephenville Airport Twillingate Winterland Wreckhouse Cartwright Airport Mary's Harbour Grates Cove Pool's Island Marticot Island Long Pond Îles de la Madeleine Airport
Legend: buoyBuoy land stationLand Station